Time;durP1;ratioP1;P1;durP2;ratioP2;P2;SDS_P1;SDS_P2;PMS_P1;PMS_P2;Temp;Humidity;BMP_temperature;BMP_pressure;BME280_temperature;BME280_humidity;BME280_pressure;Samples;Min_cycle;Max_cycle;Signal;HPM_P1;HPM_P2
2021/07/22 00:01:49;;;;;;;12.10;10.87;;;16.50;99.90;;;;;;5029265;28;20240;-65
2021/07/22 00:04:19;;;;;;;15.77;12.43;;;16.50;99.90;;;;;;5027914;28;20260;-65
2021/07/22 00:06:48;;;;;;;14.27;12.50;;;16.50;99.90;;;;;;5027092;28;20668;-65
2021/07/22 00:09:19;;;;;;;13.17;11.63;;;16.40;99.90;;;;;;5027849;28;20229;-65
2021/07/22 00:11:49;;;;;;;12.77;11.47;;;16.50;99.90;;;;;;5044297;28;20232;-65
2021/07/22 00:14:18;;;;;;;12.77;11.07;;;16.50;99.90;;;;;;5047584;28;20236;-65
2021/07/22 00:16:48;;;;;;;12.57;11.30;;;16.50;99.90;;;;;;5046818;28;20228;-65
2021/07/22 00:19:18;;;;;;;14.20;11.90;;;16.50;99.90;;;;;;5047850;28;20342;-65
2021/07/22 00:21:47;;;;;;;14.37;12.33;;;16.50;99.90;;;;;;5017581;28;20246;-65
2021/07/22 00:24:18;;;;;;;12.53;11.23;;;16.40;99.90;;;;;;5007954;28;20547;-66
2021/07/22 00:26:47;;;;;;;14.97;10.93;;;16.50;99.90;;;;;;5024268;28;20676;-65
2021/07/22 00:29:17;;;;;;;12.77;11.37;;;16.50;99.90;;;;;;5027831;28;20658;-65
2021/07/22 00:31:49;;;;;;;14.37;12.30;;;16.50;99.90;;;;;;5026739;28;20375;-65
2021/07/22 00:34:19;;;;;;;13.20;11.83;;;16.50;99.90;;;;;;5027368;28;20724;-65
2021/07/22 00:36:49;;;;;;;13.53;11.50;;;16.50;99.90;;;;;;5026631;28;20315;-65
2021/07/22 00:39:20;;;;;;;12.70;11.40;;;16.50;99.90;;;;;;5027491;28;20605;-65
2021/07/22 00:41:52;;;;;;;13.23;11.43;;;16.50;99.90;;;;;;5025123;28;20708;-65
2021/07/22 00:44:22;;;;;;;12.10;10.87;;;16.50;99.90;;;;;;5034541;28;20235;-66
2021/07/22 00:46:52;;;;;;;12.93;11.30;;;16.50;99.90;;;;;;5026917;28;20304;-66
2021/07/22 00:49:22;;;;;;;13.03;10.73;;;16.40;99.90;;;;;;5027794;28;20901;-65
2021/07/22 00:51:52;;;;;;;11.53;10.27;;;16.40;99.90;;;;;;5026511;28;20244;-65
2021/07/22 00:54:25;;;;;;;12.43;11.13;;;16.40;99.90;;;;;;5042693;28;20240;-66
2021/07/22 00:56:55;;;;;;;12.10;10.67;;;16.50;99.90;;;;;;5025155;28;20229;-66
2021/07/22 00:59:25;;;;;;;12.07;10.70;;;16.50;99.90;;;;;;5027163;28;20294;-66
2021/07/22 01:01:55;;;;;;;12.93;10.47;;;16.60;99.90;;;;;;5026563;28;20233;-66
2021/07/22 01:04:27;;;;;;;11.37;10.17;;;16.70;99.90;;;;;;5007513;28;20279;-65
2021/07/22 01:06:58;;;;;;;11.37;10.20;;;16.80;99.90;;;;;;5045261;28;20243;-66
2021/07/22 01:09:29;;;;;;;12.33;10.27;;;16.80;99.90;;;;;;5016577;28;20604;-66
2021/07/22 01:12:01;;;;;;;11.63;9.77;;;16.70;99.90;;;;;;5042667;28;20700;-66
2021/07/22 01:14:31;;;;;;;11.07;9.90;;;16.70;99.90;;;;;;5047720;28;20232;-66
2021/07/22 01:17:14;;;;;;;11.03;9.47;;;16.70;99.90;;;;;;5058249;28;20235;-65
2021/07/22 01:19:44;;;;;;;11.63;10.20;;;16.70;99.90;;;;;;5044322;28;20243;-65
2021/07/22 01:22:15;;;;;;;11.57;9.87;;;16.70;99.90;;;;;;5050143;28;20323;-65
2021/07/22 01:24:45;;;;;;;11.87;10.07;;;16.60;99.90;;;;;;5065831;28;20621;-65
2021/07/22 01:27:19;;;;;;;15.50;11.23;;;16.60;99.90;;;;;;5070431;28;20764;-65
2021/07/22 01:29:53;;;;;;;12.33;10.03;;;16.60;99.90;;;;;;5069137;28;20237;-66
2021/07/22 01:32:23;;;;;;;12.10;9.97;;;16.70;99.90;;;;;;5068710;28;20715;-65
2021/07/22 01:34:53;;;;;;;11.60;9.80;;;16.60;99.90;;;;;;5069620;28;20235;-65
2021/07/22 01:37:28;;;;;;;11.73;10.03;;;16.70;99.90;;;;;;5068560;28;20665;-65
2021/07/22 01:39:59;;;;;;;11.30;9.50;;;16.60;99.90;;;;;;5049554;28;20394;-65
2021/07/22 01:42:31;;;;;;;13.87;10.57;;;16.60;99.90;;;;;;5048617;28;20294;-66
2021/07/22 01:45:01;;;;;;;11.90;10.07;;;16.70;99.90;;;;;;5049924;28;20297;-65
2021/07/22 01:47:32;;;;;;;10.83;9.73;;;16.70;99.90;;;;;;5049493;28;20247;-66
2021/07/22 01:50:02;;;;;;;12.83;9.83;;;16.70;99.90;;;;;;5048445;28;20297;-65
2021/07/22 01:52:33;;;;;;;12.57;9.47;;;16.70;99.90;;;;;;5048269;28;20411;-66
2021/07/22 01:55:04;;;;;;;13.63;10.33;;;16.60;99.90;;;;;;5049702;28;20262;-65
2021/07/22 01:57:38;;;;;;;11.50;10.30;;;16.50;99.90;;;;;;5049486;28;20714;-65
2021/07/22 02:00:11;;;;;;;13.33;10.83;;;16.40;99.90;;;;;;5053266;28;20245;-66
2021/07/22 02:02:48;;;;;;;12.67;10.23;;;16.20;99.90;;;;;;5069664;28;20242;-65
2021/07/22 02:05:24;;;;;;;11.27;10.13;;;16.20;99.90;;;;;;5061713;28;20600;-65
2021/07/22 02:07:54;;;;;;;12.57;11.13;;;16.20;99.90;;;;;;5064407;28;20235;-65
2021/07/22 02:10:22;;;;;;;12.60;10.03;;;16.10;99.90;;;;;;5055024;28;20246;-65
2021/07/22 02:12:50;;;;;;;10.67;9.57;;;16.00;99.90;;;;;;5055787;28;20727;-66
2021/07/22 02:15:29;;;;;;;11.70;10.27;;;16.00;99.90;;;;;;5060743;28;20708;-65
2021/07/22 02:17:59;;;;;;;13.00;10.57;;;16.00;99.90;;;;;;5047961;28;20244;-65
2021/07/22 02:20:27;;;;;;;13.13;10.50;;;15.90;99.90;;;;;;5056233;28;20345;-65
2021/07/22 02:22:59;;;;;;;14.97;9.80;;;15.90;99.90;;;;;;5068403;28;20699;-65
2021/07/22 02:25:50;;;;;;;11.20;9.97;;;15.80;99.90;;;;;;5067651;28;20257;-65
2021/07/22 02:28:18;;;;;;;11.03;9.70;;;15.90;99.90;;;;;;5068265;28;20243;-66
2021/07/22 02:30:46;;;;;;;11.80;10.53;;;15.90;99.90;;;;;;5058515;28;20834;-65
2021/07/22 02:33:14;;;;;;;13.17;10.53;;;15.80;99.90;;;;;;5047970;28;20271;-65
2021/07/22 02:35:42;;;;;;;12.73;10.20;;;15.80;99.90;;;;;;5057262;28;20315;-65
2021/07/22 02:38:47;;;;;;;11.63;10.10;;;15.80;99.90;;;;;;5051479;28;20610;-65
2021/07/22 02:41:15;;;;;;;11.07;9.93;;;15.80;99.90;;;;;;5056086;28;20291;-65
2021/07/22 02:43:44;;;;;;;13.83;11.53;;;15.90;99.90;;;;;;5048067;28;20366;-65
2021/07/22 02:46:13;;;;;;;11.43;10.03;;;15.80;99.90;;;;;;5059628;28;20231;-65
2021/07/22 02:49:02;;;;;;;14.33;11.43;;;15.90;99.90;;;;;;5068877;28;20235;-66
2021/07/22 02:51:34;;;;;;;12.67;11.00;;;15.80;99.90;;;;;;5068280;28;20250;-65
2021/07/22 02:54:11;;;;;;;12.87;10.80;;;15.80;99.90;;;;;;5067734;28;20664;-65
2021/07/22 02:56:40;;;;;;;11.40;10.20;;;15.80;99.90;;;;;;5050671;28;20236;-65
2021/07/22 02:59:15;;;;;;;15.57;10.67;;;15.80;99.90;;;;;;5047344;28;20255;-65
2021/07/22 03:01:44;;;;;;;13.67;10.97;;;15.90;99.90;;;;;;5044987;28;20773;-65
2021/07/22 03:04:19;;;;;;;13.10;11.73;;;15.90;99.90;;;;;;5047142;28;20675;-65
2021/07/22 03:07:00;;;;;;;12.73;10.97;;;15.90;99.90;;;;;;5047679;28;20396;-65
2021/07/22 03:09:30;;;;;;;13.97;10.60;;;15.90;99.90;;;;;;5047399;28;20307;-66
2021/07/22 03:11:58;;;;;;;10.90;9.80;;;16.00;99.90;;;;;;5046984;28;20314;-66
2021/07/22 03:14:27;;;;;;;13.20;11.20;;;16.00;99.90;;;;;;5047158;28;20239;-65
2021/07/22 03:17:01;;;;;;;12.33;10.30;;;16.00;99.90;;;;;;5064275;28;20231;-66
2021/07/22 03:19:38;;;;;;;12.70;10.87;;;16.00;99.90;;;;;;5066846;28;20304;-65
2021/07/22 03:22:15;;;;;;;13.40;10.43;;;16.00;99.90;;;;;;5047189;28;20235;-65
2021/07/22 03:24:44;;;;;;;12.00;10.07;;;16.00;99.90;;;;;;5041519;28;20326;-66
2021/07/22 03:27:35;;;;;;;11.77;10.27;;;16.00;99.90;;;;;;5054743;28;20297;-66
2021/07/22 03:30:04;;;;;;;12.20;10.03;;;16.00;99.90;;;;;;5047018;28;20238;-65
2021/07/22 03:32:39;;;;;;;11.40;9.80;;;16.10;99.90;;;;;;5044435;28;20277;-65
2021/07/22 03:35:10;;;;;;;14.40;11.37;;;16.30;99.90;;;;;;5048583;28;20284;-66
2021/07/22 03:37:38;;;;;;;11.17;10.03;;;16.20;99.90;;;;;;5066002;28;20321;-65
2021/07/22 03:40:14;;;;;;;11.80;10.63;;;16.20;99.90;;;;;;5061425;28;20242;-65
2021/07/22 03:42:43;;;;;;;13.43;10.83;;;16.20;99.90;;;;;;5045250;28;20621;-65
2021/07/22 03:45:14;;;;;;;11.57;9.80;;;16.20;99.90;;;;;;5046521;28;20235;-65
2021/07/22 03:47:46;;;;;;;12.57;11.27;;;16.20;99.90;;;;;;5044993;28;20242;-65
2021/07/22 03:50:14;;;;;;;11.93;10.63;;;16.20;99.90;;;;;;5045163;28;20250;-65
2021/07/22 03:52:43;;;;;;;11.43;9.80;;;16.30;99.90;;;;;;5046364;28;20898;-65
2021/07/22 03:55:15;;;;;;;14.43;11.10;;;16.20;99.90;;;;;;5044473;28;20707;-65
2021/07/22 03:58:01;;;;;;;12.00;10.80;;;16.10;99.90;;;;;;5046195;28;20366;-65
2021/07/22 04:00:38;;;;;;;13.60;10.90;;;16.10;99.90;;;;;;5043951;28;20246;-66
2021/07/22 04:03:08;;;;;;;12.57;10.43;;;16.10;99.90;;;;;;5045135;28;20561;-65
2021/07/22 04:05:38;;;;;;;12.90;10.40;;;16.10;99.90;;;;;;5065767;28;20266;-65
2021/07/22 04:08:07;;;;;;;14.97;11.63;;;16.20;99.90;;;;;;5044997;28;20262;-65
2021/07/22 04:10:47;;;;;;;15.83;11.23;;;16.30;99.90;;;;;;5045409;28;20603;-65
2021/07/22 04:13:36;;;;;;;12.47;10.33;;;16.20;99.90;;;;;;5024635;28;20281;-65
2021/07/22 04:16:22;;;;;;;13.60;10.23;;;16.30;99.90;;;;;;5059689;28;20659;-65
2021/07/22 04:19:29;;;;;;;15.90;11.80;;;16.30;99.90;;;;;;5031377;28;20446;-65
2021/07/22 04:22:23;;;;;;;13.50;10.53;;;16.30;99.90;;;;;;5031246;28;20707;-65
2021/07/22 04:25:09;;;;;;;12.00;10.60;;;16.30;99.90;;;;;;5031725;28;20318;-65
2021/07/22 04:27:55;;;;;;;11.83;10.63;;;16.40;99.90;;;;;;5046767;28;20712;-65
2021/07/22 04:30:25;;;;;;;12.57;10.60;;;16.50;99.90;;;;;;5051593;28;20595;-65
2021/07/22 04:33:22;;;;;;;15.43;11.90;;;16.40;99.90;;;;;;5055094;28;20281;-65
2021/07/22 04:36:10;;;;;;;14.20;11.70;;;16.50;99.90;;;;;;5064678;28;20234;-65
2021/07/22 04:38:59;;;;;;;14.73;10.83;;;16.50;99.90;;;;;;5043861;28;20239;-65
2021/07/22 04:41:37;;;;;;;15.83;11.83;;;16.60;99.90;;;;;;5049143;28;20247;-65
2021/07/22 04:44:14;;;;;;;12.90;11.53;;;16.60;99.90;;;;;;5044712;28;20718;-65
2021/07/22 04:47:03;;;;;;;13.27;11.67;;;16.60;99.90;;;;;;5042009;28;20250;-66
2021/07/22 04:49:40;;;;;;;13.50;11.27;;;16.70;99.90;;;;;;5045833;28;20235;-65
2021/07/22 04:52:40;;;;;;;16.43;11.73;;;16.80;99.90;;;;;;5040212;28;20239;-65
2021/07/22 04:55:13;;;;;;;13.10;11.70;;;16.80;99.90;;;;;;5046482;28;20803;-65
2021/07/22 04:57:42;;;;;;;14.30;11.53;;;16.80;99.90;;;;;;5046753;28;20493;-65
2021/07/22 05:00:14;;;;;;;12.90;11.57;;;16.70;99.90;;;;;;5047703;28;20254;-66
2021/07/22 05:02:57;;;;;;;13.33;10.97;;;16.70;99.90;;;;;;5050225;28;20310;-65
2021/07/22 05:05:27;;;;;;;13.30;11.63;;;16.70;99.90;;;;;;5047791;28;20231;-66
2021/07/22 05:08:21;;;;;;;13.00;11.57;;;16.80;99.90;;;;;;5052622;28;20242;-65
2021/07/22 05:10:58;;;;;;;13.37;11.30;;;16.80;99.90;;;;;;5049159;28;20735;-65
2021/07/22 05:13:38;;;;;;;15.80;11.67;;;16.80;99.90;;;;;;5045855;28;20700;-65
2021/07/22 05:16:34;;;;;;;15.87;11.60;;;17.00;99.90;;;;;;5048005;28;20239;-65
2021/07/22 05:19:09;;;;;;;15.13;11.47;;;17.00;99.90;;;;;;5074349;28;20742;-65
2021/07/22 05:21:46;;;;;;;17.73;11.67;;;17.00;99.90;;;;;;5047696;28;20231;-65
2021/07/22 05:24:27;;;;;;;17.57;11.73;;;17.20;99.90;;;;;;5046979;28;21546;-65
2021/07/22 05:27:19;;;;;;;13.63;11.70;;;17.10;99.90;;;;;;5056384;28;20246;-65
2021/07/22 05:30:14;;;;;;;13.33;11.87;;;17.10;99.90;;;;;;5049475;28;20323;-66
2021/07/22 05:32:57;;;;;;;14.53;11.03;;;17.10;99.90;;;;;;5044827;28;20243;-65
2021/07/22 05:35:43;;;;;;;13.27;11.40;;;17.20;99.90;;;;;;5047109;28;20236;-66
2021/07/22 05:38:35;;;;;;;16.17;11.90;;;17.20;99.90;;;;;;5050023;28;20240;-66
2021/07/22 05:41:04;;;;;;;14.73;11.03;;;17.20;99.90;;;;;;5047307;28;20236;-65
2021/07/22 05:43:32;;;;;;;13.63;11.40;;;17.30;99.90;;;;;;5046306;28;20232;-67
2021/07/22 05:46:01;;;;;;;12.27;10.97;;;17.60;99.90;;;;;;5047111;28;20335;-66
2021/07/22 05:48:30;;;;;;;12.47;11.17;;;17.70;99.90;;;;;;5050595;28;20326;-66
2021/07/22 05:51:01;;;;;;;14.77;10.70;;;17.80;99.90;;;;;;5052788;28;20251;-65
2021/07/22 05:53:29;;;;;;;17.27;10.70;;;18.00;99.90;;;;;;5046853;28;20720;-65
2021/07/22 05:55:58;;;;;;;11.70;10.00;;;18.20;99.90;;;;;;5049913;28;20646;-65
2021/07/22 05:58:27;;;;;;;14.63;10.20;;;18.20;99.90;;;;;;5051701;28;20311;-65
2021/07/22 06:00:59;;;;;;;12.57;9.07;;;18.30;99.90;;;;;;5049370;28;20244;-64
2021/07/22 06:03:28;;;;;;;11.33;9.97;;;18.40;99.90;;;;;;5048434;28;20682;-64
2021/07/22 06:05:59;;;;;;;12.00;10.10;;;18.50;99.90;;;;;;5047838;28;20304;-63
2021/07/22 06:08:27;;;;;;;12.73;10.23;;;18.60;99.90;;;;;;5053186;28;20248;-65
2021/07/22 06:10:55;;;;;;;10.53;9.53;;;18.90;99.90;;;;;;5046502;28;20253;-64
2021/07/22 06:13:23;;;;;;;12.30;8.80;;;19.10;99.90;;;;;;5046423;28;20867;-65
2021/07/22 06:15:51;;;;;;;11.57;8.47;;;19.10;99.90;;;;;;5046046;28;20249;-65
2021/07/22 06:18:19;;;;;;;10.07;8.87;;;19.10;99.90;;;;;;5048532;28;20254;-64
2021/07/22 06:20:51;;;;;;;9.47;8.47;;;19.20;99.90;;;;;;5048165;28;20252;-64
2021/07/22 06:23:21;;;;;;;10.40;8.03;;;19.10;99.90;;;;;;5046730;28;21255;-65
2021/07/22 06:25:49;;;;;;;9.63;7.83;;;19.20;99.90;;;;;;5045986;28;20239;-64
2021/07/22 06:28:17;;;;;;;8.07;7.23;;;19.30;99.90;;;;;;5048510;28;20692;-65
2021/07/22 06:30:45;;;;;;;8.83;7.97;;;19.30;99.90;;;;;;5045999;28;20363;-65
2021/07/22 06:33:13;;;;;;;12.00;7.57;;;19.30;99.90;;;;;;5046414;28;20240;-65
2021/07/22 06:35:41;;;;;;;9.73;8.30;;;19.50;99.90;;;;;;5045554;28;20242;-65
2021/07/22 06:38:09;;;;;;;8.23;6.90;;;19.50;99.90;;;;;;5050021;28;20247;-64
2021/07/22 06:40:40;;;;;;;9.43;6.53;;;19.60;99.90;;;;;;5046564;28;20257;-64
2021/07/22 06:43:09;;;;;;;9.77;7.70;;;19.70;99.90;;;;;;5050260;28;20247;-64
2021/07/22 06:45:37;;;;;;;9.77;7.17;;;19.80;99.90;;;;;;5044324;28;20344;-64
2021/07/22 06:48:06;;;;;;;8.80;6.37;;;19.90;99.90;;;;;;5047923;28;20239;-65
2021/07/22 06:50:35;;;;;;;8.17;6.57;;;19.80;99.90;;;;;;5042822;28;20234;-64
2021/07/22 06:53:04;;;;;;;10.13;6.27;;;19.80;99.90;;;;;;5044394;28;20256;-65
2021/07/22 06:55:32;;;;;;;8.73;6.30;;;20.00;99.90;;;;;;5044314;28;20242;-65
2021/07/22 06:58:06;;;;;;;10.50;7.03;;;20.00;99.90;;;;;;5044942;28;20246;-64
2021/07/22 07:00:34;;;;;;;8.13;6.23;;;20.00;99.90;;;;;;5046748;28;20296;-64
2021/07/22 07:03:03;;;;;;;7.20;5.73;;;20.20;99.90;;;;;;5051587;28;20242;-65
2021/07/22 07:05:32;;;;;;;8.37;6.50;;;20.30;99.90;;;;;;5044834;28;20311;-65
2021/07/22 07:08:00;;;;;;;8.37;6.03;;;20.30;99.90;;;;;;5051933;28;20247;-65
2021/07/22 07:10:29;;;;;;;9.03;6.23;;;20.40;99.90;;;;;;5050117;28;20253;-65
2021/07/22 07:12:57;;;;;;;6.50;5.87;;;20.40;99.90;;;;;;5049706;28;20240;-65
2021/07/22 07:15:27;;;;;;;8.63;5.73;;;20.70;99.90;;;;;;5050710;28;20517;-65
2021/07/22 07:17:57;;;;;;;8.27;6.90;;;20.80;99.90;;;;;;5046309;28;20917;-64
2021/07/22 07:20:25;;;;;;;6.17;5.40;;;20.90;99.90;;;;;;5047702;28;20698;-65
2021/07/22 07:22:56;;;;;;;7.83;5.20;;;21.00;99.90;;;;;;5049566;28;20760;-65
2021/07/22 07:25:24;;;;;;;5.97;4.63;;;21.10;99.90;;;;;;5045129;28;20484;-65
2021/07/22 07:27:52;;;;;;;5.63;4.87;;;21.20;99.90;;;;;;5049484;28;20246;-64
2021/07/22 07:30:21;;;;;;;4.97;4.50;;;21.20;99.90;;;;;;5046128;28;20243;-65
2021/07/22 07:32:53;;;;;;;6.47;4.87;;;21.30;99.90;;;;;;5044744;28;20334;-65
2021/07/22 07:35:23;;;;;;;7.60;5.23;;;21.30;99.90;;;;;;5049936;28;20268;-65
2021/07/22 07:37:51;;;;;;;6.43;4.93;;;21.30;99.90;;;;;;5044866;28;20239;-65
2021/07/22 07:40:20;;;;;;;8.50;5.13;;;21.50;99.90;;;;;;5047404;28;20329;-65
2021/07/22 07:42:48;;;;;;;7.87;5.10;;;21.60;99.90;;;;;;5045183;28;20234;-64
2021/07/22 07:45:16;;;;;;;6.53;4.30;;;21.70;99.90;;;;;;5048116;28;20327;-64
2021/07/22 07:47:45;;;;;;;4.80;4.10;;;21.80;99.90;;;;;;5045113;28;20236;-66
2021/07/22 07:50:15;;;;;;;6.00;4.40;;;21.90;99.90;;;;;;5045649;28;20251;-64
2021/07/22 07:52:43;;;;;;;6.30;4.43;;;21.90;99.90;;;;;;5042093;28;20606;-65
2021/07/22 07:55:13;;;;;;;6.50;5.10;;;21.90;99.90;;;;;;5046803;28;20372;-65
2021/07/22 07:57:41;;;;;;;5.10;4.47;;;22.00;99.90;;;;;;5042181;28;20245;-65
2021/07/22 08:00:10;;;;;;;7.13;5.07;;;22.10;99.90;;;;;;5043041;28;20250;-64
2021/07/22 08:02:47;;;;;;;6.67;5.00;;;22.20;99.90;;;;;;5046011;28;20250;-65
2021/07/22 08:05:17;;;;;;;6.03;4.47;;;22.20;99.90;;;;;;5046702;28;20656;-65
2021/07/22 08:07:45;;;;;;;4.53;4.20;;;22.30;99.90;;;;;;5042720;28;20251;-65
2021/07/22 08:10:13;;;;;;;6.80;5.00;;;22.50;99.90;;;;;;5043206;28;20249;-65
2021/07/22 08:12:42;;;;;;;7.17;5.10;;;22.50;99.90;;;;;;5049143;28;20308;-65
2021/07/22 08:15:11;;;;;;;8.23;4.93;;;22.50;99.90;;;;;;5042487;28;20246;-65
2021/07/22 08:17:39;;;;;;;12.60;5.33;;;22.60;99.90;;;;;;5048989;28;20247;-65
2021/07/22 08:20:13;;;;;;;7.99;4.91;;;22.70;99.90;;;;;;1493384;28;10022665;-64
2021/07/22 08:22:42;;;;;;;6.63;4.63;;;22.40;99.90;;;;;;4702186;28;10000823;-65
2021/07/22 08:25:11;;;;;;;7.17;4.70;;;22.50;99.90;;;;;;5043968;28;20765;-65
2021/07/22 08:27:39;;;;;;;7.13;4.83;;;22.50;99.90;;;;;;5048979;28;20333;-65
2021/07/22 08:30:08;;;;;;;6.77;4.50;;;22.60;99.90;;;;;;5043174;28;20242;-65
2021/07/22 08:32:36;;;;;;;6.30;4.83;;;22.50;99.90;;;;;;5043030;28;20276;-65
2021/07/22 08:35:06;;;;;;;4.87;4.37;;;22.30;99.90;;;;;;5042179;28;20768;-64
2021/07/22 08:37:35;;;;;;;5.70;5.00;;;22.30;99.90;;;;;;5043167;28;20428;-65
2021/07/22 08:40:06;;;;;;;5.20;4.70;;;22.20;99.90;;;;;;5048774;28;20655;-64
2021/07/22 08:42:36;;;;;;;4.47;4.07;;;22.30;99.90;;;;;;5047396;28;20239;-64
2021/07/22 08:45:06;;;;;;;5.63;4.20;;;22.00;99.90;;;;;;5049183;28;20242;-65
2021/07/22 08:47:36;;;;;;;6.40;5.03;;;22.00;99.90;;;;;;5042710;28;20246;-65
2021/07/22 08:50:05;;;;;;;5.53;4.80;;;21.90;99.90;;;;;;5043892;28;20239;-64
2021/07/22 08:52:33;;;;;;;6.70;4.80;;;21.90;99.90;;;;;;5042676;28;20330;-65
2021/07/22 08:55:02;;;;;;;6.13;4.67;;;21.70;99.90;;;;;;5043319;28;21035;-65
2021/07/22 08:57:33;;;;;;;7.03;4.90;;;22.10;99.90;;;;;;5048645;28;20259;-64
2021/07/22 09:00:04;;;;;;;5.53;4.70;;;22.50;99.90;;;;;;5049524;28;20661;-65
2021/07/22 09:02:33;;;;;;;4.90;4.07;;;22.40;99.90;;;;;;5041889;28;20246;-65
2021/07/22 09:05:03;;;;;;;6.00;4.50;;;22.10;99.90;;;;;;5047377;28;20247;-65
2021/07/22 09:07:32;;;;;;;5.23;4.03;;;22.00;99.90;;;;;;5048958;28;20403;-65
2021/07/22 09:10:12;;;;;;;5.97;4.20;;;21.80;99.90;;;;;;5043008;28;20261;-65
2021/07/22 09:12:43;;;;;;;5.07;3.87;;;21.70;99.90;;;;;;5042926;28;20737;-64
2021/07/22 09:15:14;;;;;;;6.10;4.27;;;21.80;99.90;;;;;;5041551;28;20714;-64
2021/07/22 09:18:21;;;;;;;5.73;3.97;;;22.20;99.90;;;;;;5042570;28;20244;-64
2021/07/22 09:20:50;;;;;;;4.50;3.53;;;22.80;99.90;;;;;;5045496;28;20312;-65
2021/07/22 09:23:20;;;;;;;5.23;3.43;;;23.40;99.90;;;;;;5048637;28;20248;-65
2021/07/22 09:25:50;;;;;;;4.27;3.80;;;24.00;99.90;;;;;;5045644;28;20775;-64
2021/07/22 09:28:21;;;;;;;5.20;3.67;;;24.20;99.90;;;;;;5048984;28;20247;-65
2021/07/22 09:30:57;;;;;;;4.97;3.90;;;24.40;99.90;;;;;;5042816;28;21035;-65
2021/07/22 09:33:36;;;;;;;5.87;3.70;;;24.10;99.90;;;;;;5048396;28;20274;-66
2021/07/22 09:36:05;;;;;;;6.37;3.47;;;23.70;99.90;;;;;;5050976;28;20604;-65
2021/07/22 09:38:34;;;;;;;6.20;3.63;;;23.50;99.90;;;;;;5045963;28;20782;-65
2021/07/22 09:41:02;;;;;;;4.20;3.73;;;23.40;99.90;;;;;;5050391;28;20238;-65
2021/07/22 09:43:39;;;;;;;5.40;4.10;;;23.10;99.90;;;;;;5051030;28;20243;-64
2021/07/22 09:46:08;;;;;;;4.77;3.80;;;23.10;99.90;;;;;;5052546;28;20581;-66
2021/07/22 09:48:37;;;;;;;3.60;3.20;;;23.80;99.90;;;;;;5045235;28;20251;-65
2021/07/22 09:51:06;;;;;;;3.60;3.10;;;24.40;99.90;;;;;;5052242;28;20267;-65
2021/07/22 09:53:34;;;;;;;2.90;2.60;;;24.80;99.90;;;;;;5044664;28;20336;-65
2021/07/22 09:56:02;;;;;;;4.67;3.20;;;25.20;99.90;;;;;;5047742;28;20472;-66
2021/07/22 09:58:31;;;;;;;3.93;3.20;;;25.30;99.90;;;;;;5045116;28;20258;-64
2021/07/22 10:01:02;;;;;;;4.17;3.60;;;25.10;99.90;;;;;;5044291;28;20240;-66
2021/07/22 10:03:34;;;;;;;5.40;3.20;;;24.70;99.90;;;;;;5045164;28;20256;-65
2021/07/22 10:06:08;;;;;;;4.23;3.33;;;25.20;99.90;;;;;;5052088;28;20245;-64
2021/07/22 10:08:38;;;;;;;3.40;2.90;;;25.50;99.90;;;;;;5045443;28;20248;-64
2021/07/22 10:11:07;;;;;;;5.93;3.20;;;25.30;99.90;;;;;;5048782;28;25437;-65
2021/07/22 10:13:39;;;;;;;3.47;3.07;;;25.60;99.90;;;;;;5049219;28;20326;-65
2021/07/22 10:16:12;;;;;;;3.50;2.90;;;25.80;99.90;;;;;;5052119;28;20237;-65
2021/07/22 10:18:45;;;;;;;3.43;3.00;;;25.60;99.90;;;;;;5048314;28;20248;-65
2021/07/22 10:21:14;;;;;;;3.83;3.40;;;24.90;99.90;;;;;;5050666;28;20256;-65
2021/07/22 10:23:43;;;;;;;2.80;2.60;;;24.60;99.90;;;;;;5043998;28;20708;-65
2021/07/22 10:26:11;;;;;;;2.83;2.60;;;25.30;99.90;;;;;;5044595;28;20257;-65
2021/07/22 10:28:40;;;;;;;3.63;2.50;;;26.00;99.90;;;;;;5044910;28;20240;-65
2021/07/22 10:31:10;;;;;;;5.03;2.70;;;26.70;99.90;;;;;;5044389;28;20571;-64
2021/07/22 10:33:40;;;;;;;4.57;2.20;;;26.90;99.90;;;;;;5043965;28;20320;-66
2021/07/22 10:36:09;;;;;;;3.20;2.50;;;27.00;99.90;;;;;;5050942;28;20257;-65
2021/07/22 10:38:45;;;;;;;3.53;2.93;;;27.40;99.90;;;;;;5050815;28;20257;-65
2021/07/22 10:41:35;;;;;;;3.93;2.83;;;27.10;99.90;;;;;;5045871;28;20249;-66
2021/07/22 10:44:05;;;;;;;6.00;2.97;;;26.20;99.90;;;;;;5045807;28;20729;-65
2021/07/22 10:46:54;;;;;;;3.93;2.93;;;25.40;99.90;;;;;;5046005;28;20242;-64
2021/07/22 10:49:38;;;;;;;4.03;3.30;;;25.90;99.90;;;;;;5051539;28;20311;-65
2021/07/22 10:52:08;;;;;;;4.57;3.10;;;26.00;99.90;;;;;;5044448;28;20733;-64
2021/07/22 10:54:48;;;;;;;3.50;3.20;;;26.00;99.90;;;;;;5043550;28;20771;-65
2021/07/22 10:57:36;;;;;;;3.93;2.90;;;26.00;99.90;;;;;;5044141;28;20726;-66
2021/07/22 11:00:07;;;;;;;5.90;3.20;;;25.60;99.90;;;;;;5043187;28;20264;-65
2021/07/22 11:02:44;;;;;;;6.00;3.30;;;25.90;99.90;;;;;;5035322;28;20230;-65
2021/07/22 11:05:51;;;;;;;3.50;3.20;;;26.30;99.90;;;;;;5038934;28;21043;-64
2021/07/22 11:08:22;;;;;;;4.17;3.27;;;26.40;99.90;;;;;;5039358;28;20760;-64
2021/07/22 11:10:54;;;;;;;6.27;3.70;;;26.60;99.90;;;;;;5039638;28;20244;-65
2021/07/22 11:13:44;;;;;;;4.53;3.20;;;26.60;99.90;;;;;;5038260;28;20242;-66
2021/07/22 11:16:20;;;;;;;3.10;2.80;;;26.40;99.90;;;;;;5038447;28;20247;-65
2021/07/22 11:18:57;;;;;;;3.53;2.83;;;26.70;99.90;;;;;;5045257;28;20269;-66
2021/07/22 11:21:28;;;;;;;4.93;2.83;;;27.30;99.90;;;;;;5047557;28;20882;-65
2021/07/22 11:24:02;;;;;;;3.10;2.77;;;27.90;99.90;;;;;;5035807;28;21088;-65
2021/07/22 11:26:32;;;;;;;2.70;2.50;;;28.00;99.90;;;;;;5038376;28;20253;-65
2021/07/22 11:29:13;;;;;;;4.20;3.13;;;27.80;99.90;;;;;;5036361;28;20783;-65
2021/07/22 11:31:43;;;;;;;3.53;2.63;;;27.90;99.90;;;;;;5045015;28;20246;-65
2021/07/22 11:34:13;;;;;;;4.17;3.10;;;27.60;99.90;;;;;;5041658;28;20243;-64
2021/07/22 11:36:41;;;;;;;4.83;2.60;;;26.90;99.90;;;;;;5045937;28;20246;-65
2021/07/22 11:39:09;;;;;;;3.80;3.00;;;26.50;99.90;;;;;;5043728;28;20243;-64
2021/07/22 11:41:37;;;;;;;4.03;3.13;;;26.20;99.90;;;;;;5043469;28;20271;-65
2021/07/22 11:44:07;;;;;;;4.90;2.87;;;25.50;99.90;;;;;;5042662;28;20261;-65
2021/07/22 11:46:41;;;;;;;3.73;2.70;;;25.00;99.90;;;;;;5040315;28;20243;-65
2021/07/22 11:49:14;;;;;;;3.93;2.77;;;25.30;99.90;;;;;;5044261;28;20245;-65
2021/07/22 11:51:43;;;;;;;6.43;2.70;;;25.80;99.90;;;;;;5042641;28;20243;-65
2021/07/22 11:54:12;;;;;;;4.40;2.70;;;25.70;99.90;;;;;;5041352;28;20741;-65
2021/07/22 11:56:42;;;;;;;4.27;2.47;;;25.60;99.90;;;;;;5036865;28;20700;-64
2021/07/22 11:59:12;;;;;;;5.13;2.30;;;25.90;99.90;;;;;;5039513;28;20330;-65
2021/07/22 12:01:51;;;;;;;4.13;2.43;;;26.40;99.90;;;;;;5038805;28;20730;-64
2021/07/22 12:04:27;;;;;;;4.03;2.30;;;26.20;99.90;;;;;;5039777;28;20709;-65
2021/07/22 12:06:56;;;;;;;4.00;2.20;;;25.60;99.90;;;;;;5041157;28;20460;-64
2021/07/22 12:09:24;;;;;;;3.70;2.10;;;25.20;99.90;;;;;;5042687;28;20246;-64
2021/07/22 12:11:53;;;;;;;4.53;2.00;;;25.40;99.90;;;;;;5043114;28;20315;-65
2021/07/22 12:14:29;;;;;;;2.90;2.10;;;25.90;99.90;;;;;;5040198;28;20242;-65
2021/07/22 12:17:01;;;;;;;3.30;2.20;;;26.40;99.90;;;;;;5041737;28;20250;-64
2021/07/22 12:19:32;;;;;;;2.77;2.20;;;26.20;99.90;;;;;;5039421;28;20235;-65
2021/07/22 12:22:22;;;;;;;3.80;1.97;;;26.30;99.90;;;;;;5038081;28;20238;-64
2021/07/22 12:24:52;;;;;;;3.30;2.00;;;26.60;99.90;;;;;;5034889;28;20288;-65
2021/07/22 12:27:43;;;;;;;4.83;1.90;;;26.70;99.90;;;;;;5040654;28;20230;-65
2021/07/22 12:30:16;;;;;;;3.53;2.20;;;26.40;99.90;;;;;;5037955;28;20258;-64
2021/07/22 12:32:49;;;;;;;3.17;2.30;;;26.20;99.90;;;;;;5018049;28;20490;-65
2021/07/22 12:35:35;;;;;;;2.67;2.10;;;26.10;99.90;;;;;;5014101;28;20250;-63
2021/07/22 12:38:06;;;;;;;4.60;2.20;;;25.80;99.90;;;;;;5025739;28;21005;-64
2021/07/22 12:40:38;;;;;;;2.47;1.90;;;25.70;99.90;;;;;;5029121;28;20781;-64
2021/07/22 12:43:08;;;;;;;6.43;1.87;;;25.80;99.90;;;;;;5034099;28;20242;-65
2021/07/22 12:45:37;;;;;;;6.47;2.23;;;25.90;99.90;;;;;;5034202;28;20273;-65
2021/07/22 12:48:06;;;;;;;2.73;2.10;;;25.70;99.90;;;;;;5033621;28;20328;-65
2021/07/22 12:50:38;;;;;;;3.60;1.90;;;25.60;99.90;;;;;;5033695;28;20235;-63
2021/07/22 12:53:08;;;;;;;3.30;1.90;;;25.60;99.90;;;;;;5033703;28;20243;-64
2021/07/22 12:55:39;;;;;;;4.10;2.10;;;25.30;99.90;;;;;;5033301;28;20250;-64
2021/07/22 12:58:08;;;;;;;5.07;2.10;;;25.20;99.90;;;;;;5032501;28;20251;-64
2021/07/22 13:00:43;;;;;;;5.57;2.07;;;25.40;99.90;;;;;;5036728;28;20246;-64
2021/07/22 13:03:12;;;;;;;3.73;1.90;;;25.70;99.90;;;;;;5036405;28;20244;-64
2021/07/22 13:05:42;;;;;;;4.70;1.83;;;25.60;99.90;;;;;;5032667;28;20234;-63
2021/07/22 13:08:10;;;;;;;4.10;1.80;;;25.80;99.90;;;;;;5036337;28;20235;-64